createdAt,value
2023-02-24T00:02:15.521Z,5.80
2023-02-24T00:04:45.674Z,5.85
2023-02-24T00:07:14.148Z,5.90
2023-02-24T00:09:44.888Z,5.94
2023-02-24T00:12:15.091Z,5.98
2023-02-24T00:14:48.686Z,5.99
2023-02-24T00:17:17.264Z,6.00
2023-02-24T00:19:46.819Z,6.03
2023-02-24T00:22:15.175Z,6.04
2023-02-24T00:24:44.456Z,6.04
2023-02-24T00:27:12.854Z,6.02
2023-02-24T00:29:45.617Z,6.00
2023-02-24T00:32:15.202Z,5.99
2023-02-24T00:34:44.832Z,5.96
2023-02-24T00:37:15.600Z,5.94
2023-02-24T00:39:48.131Z,5.93
2023-02-24T00:42:17.480Z,5.93
2023-02-24T00:44:46.984Z,5.94
2023-02-24T00:47:17.379Z,5.97
2023-02-24T00:49:46.156Z,6.02
2023-02-24T00:52:19.452Z,6.06
2023-02-24T00:54:49.187Z,6.08
2023-02-24T00:57:21.696Z,6.10
2023-02-24T00:59:54.828Z,6.10
2023-02-24T01:02:24.232Z,6.09
2023-02-24T01:04:53.231Z,6.08
2023-02-24T01:07:21.934Z,6.06
2023-02-24T01:09:50.608Z,6.04
2023-02-24T01:12:23.886Z,6.03
2023-02-24T01:14:53.115Z,6.01
2023-02-24T01:17:22.096Z,5.99
2023-02-24T01:19:51.170Z,6.00
2023-02-24T01:22:20.377Z,6.03
2023-02-24T01:24:49.258Z,6.07
2023-02-24T01:27:19.607Z,6.13
2023-02-24T01:29:50.030Z,6.19
2023-02-24T01:32:20.400Z,6.23
2023-02-24T01:34:54.018Z,6.25
2023-02-24T01:37:22.616Z,6.26
2023-02-24T01:39:50.891Z,6.28
2023-02-24T01:42:20.860Z,6.29
2023-02-24T01:44:52.263Z,6.29
2023-02-24T01:47:23.717Z,6.30
2023-02-24T01:49:53.212Z,6.29
2023-02-24T01:52:30.753Z,6.30
2023-02-24T01:55:20.313Z,6.32
2023-02-24T01:57:50.742Z,6.35
2023-02-24T02:00:32.820Z,6.38
2023-02-24T02:03:04.232Z,6.43
2023-02-24T02:05:32.531Z,6.47
2023-02-24T02:08:03.779Z,6.50
2023-02-24T02:10:34.204Z,6.53
2023-02-24T02:13:04.936Z,6.54
2023-02-24T02:15:37.924Z,6.55
2023-02-24T02:18:28.655Z,6.54
2023-02-24T02:21:04.887Z,6.55
2023-02-24T02:23:50.926Z,6.56
2023-02-24T02:26:40.772Z,6.58
2023-02-24T02:29:22.564Z,6.64
2023-02-24T02:32:09.328Z,6.70
2023-02-24T02:34:50.642Z,6.76
2023-02-24T02:37:21.391Z,6.79
2023-02-24T02:40:22.011Z,6.81
2023-02-24T02:43:08.545Z,6.83
2023-02-24T02:46:35.064Z,6.85
2023-02-24T02:49:17.149Z,6.88
2023-02-24T02:52:05.915Z,6.91
2023-02-24T02:54:54.561Z,6.95
2023-02-24T02:57:28.050Z,7.02
2023-02-24T03:00:02.196Z,7.08
2023-02-24T03:02:31.465Z,7.12
2023-02-24T03:05:02.164Z,7.15
2023-02-24T03:07:35.153Z,7.16
2023-02-24T03:10:11.051Z,7.17
2023-02-24T03:12:39.619Z,7.17
2023-02-24T03:15:10.862Z,7.18
2023-02-24T03:17:41.175Z,7.20
2023-02-24T03:20:36.404Z,7.23
2023-02-24T03:23:12.046Z,7.28
2023-02-24T03:26:17.369Z,7.33
2023-02-24T03:29:13.416Z,7.38
2023-02-24T03:31:54.455Z,7.41
2023-02-24T03:34:57.276Z,7.42
2023-02-24T03:37:28.090Z,7.41
2023-02-24T03:39:58.436Z,7.40
2023-02-24T03:42:30.379Z,7.40
2023-02-24T03:44:58.679Z,7.41
2023-02-24T03:47:27.462Z,7.43
2023-02-24T03:49:56.146Z,7.47
2023-02-24T03:52:32.819Z,7.50
2023-02-24T03:55:07.445Z,7.53
2023-02-24T03:58:04.493Z,7.55
2023-02-24T04:00:38.708Z,7.55
2023-02-24T04:03:25.942Z,7.55
2023-02-24T04:06:21.047Z,7.55
2023-02-24T04:09:16.750Z,7.57
2023-02-24T04:11:59.306Z,7.60
2023-02-24T04:14:38.593Z,7.63
2023-02-24T04:17:27.148Z,7.66
2023-02-24T04:19:59.123Z,7.69
2023-02-24T04:22:27.894Z,7.69
2023-02-24T04:24:59.940Z,7.71
2023-02-24T04:27:28.662Z,7.69
2023-02-24T04:30:05.211Z,7.68
2023-02-24T04:32:34.649Z,7.69
2023-02-24T04:35:09.752Z,7.70
2023-02-24T04:37:45.030Z,7.73
2023-02-24T04:40:17.771Z,7.77
2023-02-24T04:42:49.322Z,7.81
2023-02-24T04:45:18.732Z,7.83
2023-02-24T04:47:49.641Z,7.83
2023-02-24T04:50:25.438Z,7.82
2023-02-24T04:53:01.159Z,7.82
2023-02-24T04:55:33.317Z,7.82
2023-02-24T04:58:02.454Z,7.85
2023-02-24T05:00:35.952Z,7.89
2023-02-24T05:03:05.229Z,7.93
2023-02-24T05:05:33.858Z,7.97
2023-02-24T05:08:04.957Z,8.00
2023-02-24T05:10:40.713Z,8.00
2023-02-24T05:13:09.604Z,8.01
2023-02-24T05:15:40.651Z,8.02
2023-02-24T05:18:10.141Z,8.06
2023-02-24T05:21:00.812Z,8.09
2023-02-24T05:23:39.454Z,8.15
2023-02-24T05:26:27.834Z,8.19
2023-02-24T05:28:56.755Z,8.20
2023-02-24T05:31:29.720Z,8.22
2023-02-24T05:34:06.828Z,8.25
2023-02-24T05:36:40.720Z,8.29
2023-02-24T05:39:12.905Z,8.34
2023-02-24T05:41:42.570Z,8.39
2023-02-24T05:44:23.812Z,8.44
2023-02-24T05:46:59.359Z,8.46
2023-02-24T05:49:33.218Z,8.47
2023-02-24T05:52:08.034Z,8.49
2023-02-24T05:54:42.938Z,8.50
2023-02-24T05:57:13.248Z,8.53
2023-02-24T05:59:43.215Z,8.58
2023-02-24T06:02:15.418Z,8.63
2023-02-24T06:04:54.141Z,8.66
2023-02-24T06:07:25.217Z,8.68
2023-02-24T06:09:58.798Z,8.71
2023-02-24T06:12:29.932Z,8.72
2023-02-24T06:15:08.056Z,8.76
2023-02-24T06:17:36.858Z,8.81
2023-02-24T06:20:15.049Z,8.86
2023-02-24T06:22:43.637Z,8.88
2023-02-24T06:25:16.003Z,8.89
2023-02-24T06:27:45.592Z,8.90
2023-02-24T06:30:15.408Z,8.91
2023-02-24T06:32:45.184Z,8.93
2023-02-24T06:35:15.663Z,8.97
2023-02-24T06:37:51.010Z,9.00
2023-02-24T06:40:20.206Z,9.03
2023-02-24T06:42:49.619Z,9.04
2023-02-24T06:45:19.017Z,9.06
2023-02-24T06:47:49.124Z,9.08
2023-02-24T06:50:20.389Z,9.10
2023-02-24T06:52:49.794Z,9.14
2023-02-24T06:55:28.210Z,9.18
2023-02-24T06:57:58.966Z,9.18
2023-02-24T07:00:37.427Z,9.18
2023-02-24T07:03:15.386Z,9.19
2023-02-24T07:05:54.637Z,9.20
2023-02-24T07:08:24.894Z,9.21
2023-02-24T07:10:57.018Z,9.24
2023-02-24T07:13:26.365Z,9.26
2023-02-24T07:16:07.449Z,9.26
2023-02-24T07:18:37.256Z,9.24
2023-02-24T07:21:11.623Z,9.21
2023-02-24T07:23:40.864Z,9.20
2023-02-24T07:26:14.061Z,9.20
2023-02-24T07:28:43.671Z,9.20
2023-02-24T07:31:13.557Z,9.23
2023-02-24T07:33:45.263Z,9.25
2023-02-24T07:36:15.213Z,9.26
2023-02-24T07:38:44.532Z,9.27
2023-02-24T07:41:15.460Z,9.27
2023-02-24T07:43:44.475Z,9.27
2023-02-24T07:46:14.509Z,9.27
2023-02-24T07:48:42.789Z,9.27
2023-02-24T07:51:15.647Z,9.29
2023-02-24T07:53:53.131Z,9.32
2023-02-24T07:56:27.239Z,9.32
2023-02-24T07:59:02.265Z,9.31
2023-02-24T08:01:39.199Z,9.31
2023-02-24T08:04:08.663Z,9.32
2023-02-24T08:06:39.248Z,9.33
2023-02-24T08:09:19.448Z,9.36
2023-02-24T08:11:55.102Z,9.40
2023-02-24T08:14:25.944Z,9.43
2023-02-24T08:17:01.482Z,9.44
2023-02-24T08:19:33.648Z,9.44
2023-02-24T08:22:19.743Z,9.43
2023-02-24T08:24:55.615Z,9.44
2023-02-24T08:27:25.041Z,9.44
2023-02-24T08:30:01.691Z,9.45
2023-02-24T08:32:38.306Z,9.46
2023-02-24T08:35:17.780Z,9.48
2023-02-24T08:37:48.771Z,9.48
2023-02-24T08:40:34.034Z,9.46
2023-02-24T08:43:31.384Z,9.44
2023-02-24T08:46:12.720Z,9.43
2023-02-24T08:48:47.925Z,9.43
2023-02-24T08:51:22.762Z,9.43
2023-02-24T08:53:55.591Z,9.45
2023-02-24T08:56:34.923Z,9.48
2023-02-24T08:59:08.018Z,9.51
2023-02-24T09:01:40.316Z,9.51
2023-02-24T09:04:10.933Z,9.53
2023-02-24T09:06:40.557Z,9.55
2023-02-24T09:09:18.145Z,9.57
2023-02-24T09:11:56.736Z,9.62
2023-02-24T09:14:29.446Z,9.65
2023-02-24T09:17:11.667Z,9.65
2023-02-24T09:19:47.043Z,9.63
2023-02-24T09:22:31.703Z,9.59
2023-02-24T09:25:18.082Z,9.56
2023-02-24T09:28:08.338Z,9.55
2023-02-24T09:31:02.070Z,9.55
2023-02-24T09:33:39.439Z,9.55
2023-02-24T09:36:20.618Z,9.56
2023-02-24T09:39:00.843Z,9.58
2023-02-24T09:41:57.120Z,9.60
2023-02-24T09:44:27.454Z,9.58
2023-02-24T09:47:09.322Z,9.59
2023-02-24T09:49:48.688Z,9.59
2023-02-24T09:52:18.551Z,9.61
2023-02-24T09:55:14.836Z,9.63
2023-02-24T09:58:18.551Z,9.65
2023-02-24T10:01:21.242Z,9.66
2023-02-24T10:04:21.200Z,9.66
2023-02-24T10:06:52.030Z,9.67
2023-02-24T10:09:38.993Z,9.68
2023-02-24T10:12:17.488Z,9.68
2023-02-24T10:14:53.246Z,9.69
2023-02-24T10:17:23.889Z,9.71
2023-02-24T10:20:39.602Z,9.72
2023-02-24T10:23:33.024Z,9.67
2023-02-24T10:26:32.243Z,9.66
2023-02-24T10:29:18.973Z,9.64
2023-02-24T10:31:57.889Z,9.62
2023-02-24T10:34:32.028Z,9.61
2023-02-24T10:37:26.143Z,9.62
2023-02-24T10:40:00.584Z,9.64
2023-02-24T10:42:32.854Z,9.70
2023-02-24T10:45:17.235Z,9.73
2023-02-24T10:47:59.102Z,9.75
2023-02-24T10:50:55.092Z,9.76
2023-02-24T10:53:30.095Z,9.76
2023-02-24T10:56:26.850Z,9.78
2023-02-24T10:59:23.213Z,9.80
2023-02-24T11:02:23.948Z,9.83
2023-02-24T11:05:02.895Z,9.84
2023-02-24T11:07:46.738Z,9.83
2023-02-24T11:10:45.733Z,9.83
2023-02-24T11:13:34.851Z,9.83
2023-02-24T11:16:22.282Z,9.83
2023-02-24T11:18:52.849Z,9.84
2023-02-24T11:21:24.001Z,9.86
2023-02-24T11:23:59.959Z,9.85
2023-02-24T11:26:46.552Z,9.83
2023-02-24T11:30:01.956Z,9.82
2023-02-24T11:32:33.543Z,9.83
2023-02-24T11:35:22.765Z,9.84
2023-02-24T11:38:17.861Z,9.88
2023-02-24T11:40:48.550Z,9.88
2023-02-24T11:43:21.561Z,9.87
2023-02-24T11:45:58.581Z,9.84
2023-02-24T11:48:36.871Z,9.84
2023-02-24T11:51:07.806Z,9.83
2023-02-24T11:53:54.229Z,9.82
2023-02-24T11:56:29.652Z,9.82
2023-02-24T11:59:13.086Z,9.82
2023-02-24T12:02:11.977Z,9.82
2023-02-24T12:05:15.279Z,9.78
2023-02-24T12:07:48.762Z,9.74
2023-02-24T12:10:28.925Z,9.73
2023-02-24T12:13:11.885Z,9.72
2023-02-24T12:16:03.395Z,9.72
2023-02-24T12:18:39.612Z,9.70
2023-02-24T12:21:10.361Z,9.67
2023-02-24T12:23:41.481Z,9.64
2023-02-24T12:26:16.033Z,9.62
2023-02-24T12:29:16.442Z,9.59
2023-02-24T12:32:16.125Z,9.58
2023-02-24T12:35:07.575Z,9.59
2023-02-24T12:37:57.465Z,9.59
2023-02-24T12:40:40.733Z,9.58
2023-02-24T12:43:47.057Z,9.60
2023-02-24T12:46:27.005Z,9.60
2023-02-24T12:49:05.569Z,9.60
2023-02-24T12:51:39.736Z,9.62
2023-02-24T12:54:30.408Z,9.61
2023-02-24T12:57:03.574Z,9.60
2023-02-24T12:59:34.022Z,9.57
2023-02-24T13:02:39.651Z,9.53
2023-02-24T13:05:19.883Z,9.51
2023-02-24T13:08:35.139Z,9.49
2023-02-24T13:11:39.572Z,9.50
2023-02-24T13:14:20.638Z,9.48
2023-02-24T13:16:49.202Z,9.47
2023-02-24T13:19:19.198Z,9.46
2023-02-24T13:22:12.188Z,9.47
2023-02-24T13:25:07.189Z,9.47
2023-02-24T13:27:37.205Z,9.49
2023-02-24T13:30:11.834Z,9.50
2023-02-24T13:32:46.185Z,9.51
2023-02-24T13:35:18.210Z,9.49
2023-02-24T13:37:48.018Z,9.48
2023-02-24T13:40:16.720Z,9.47
2023-02-24T13:42:56.768Z,9.50
2023-02-24T13:45:30.593Z,9.52
2023-02-24T13:48:36.638Z,9.52
2023-02-24T13:51:08.799Z,9.50
2023-02-24T13:53:37.385Z,9.48
2023-02-24T13:56:26.552Z,9.46
2023-02-24T13:59:19.407Z,9.45
2023-02-24T14:01:52.137Z,9.47
2023-02-24T14:04:27.225Z,9.48
2023-02-24T14:07:00.645Z,9.48
2023-02-24T14:09:40.247Z,9.50
2023-02-24T14:12:16.427Z,9.49
2023-02-24T14:14:44.798Z,9.48
2023-02-24T14:17:28.914Z,9.50
2023-02-24T14:20:20.458Z,9.50
2023-02-24T14:22:53.651Z,9.51
2023-02-24T14:25:23.568Z,9.50
2023-02-24T14:27:52.970Z,9.50
2023-02-24T14:30:23.041Z,9.51
2023-02-24T14:32:51.677Z,9.53
2023-02-24T14:35:42.296Z,9.55
2023-02-24T14:38:38.088Z,9.54
2023-02-24T14:41:30.332Z,9.55
2023-02-24T14:43:59.012Z,9.55
2023-02-24T14:46:27.950Z,9.56
2023-02-24T14:49:00.273Z,9.57
2023-02-24T14:51:36.402Z,9.58
2023-02-24T14:54:07.376Z,9.59
2023-02-24T14:56:36.876Z,9.59
2023-02-24T14:59:08.426Z,9.58
2023-02-24T15:01:40.314Z,9.58
2023-02-24T15:04:34.469Z,9.59
2023-02-24T15:07:05.171Z,9.59
2023-02-24T15:09:40.407Z,9.58
2023-02-24T15:12:12.903Z,9.57
2023-02-24T15:14:41.838Z,9.56
2023-02-24T15:17:11.933Z,9.56
2023-02-24T15:19:45.989Z,9.56
2023-02-24T15:22:28.381Z,9.58
2023-02-24T15:25:37.141Z,9.59
2023-02-24T15:28:22.117Z,9.59
2023-02-24T15:31:02.002Z,9.58
2023-02-24T15:33:40.070Z,9.59
2023-02-24T15:36:12.997Z,9.61
2023-02-24T15:38:42.823Z,9.61
2023-02-24T15:41:11.495Z,9.59
2023-02-24T15:43:50.339Z,9.58
2023-02-24T15:46:19.189Z,9.57
2023-02-24T15:48:48.782Z,9.57
2023-02-24T15:51:23.649Z,9.58
2023-02-24T15:53:52.227Z,9.57
2023-02-24T15:56:20.887Z,9.56
2023-02-24T15:58:49.352Z,9.57
2023-02-24T16:01:20.491Z,9.56
2023-02-24T16:03:49.745Z,9.57
2023-02-24T16:06:19.585Z,9.59
2023-02-24T16:08:49.377Z,9.60
2023-02-24T16:11:19.687Z,9.61
2023-02-24T16:13:59.995Z,9.61
2023-02-24T16:16:28.328Z,9.60
2023-02-24T16:18:57.157Z,9.59
2023-02-24T16:21:25.587Z,9.59
2023-02-24T16:23:53.828Z,9.60
2023-02-24T16:26:23.480Z,9.61
2023-02-24T16:28:56.699Z,9.62
2023-02-24T16:31:27.086Z,9.61
2023-02-24T16:33:56.286Z,9.61
2023-02-24T16:36:25.198Z,9.62
2023-02-24T16:38:53.815Z,9.62
2023-02-24T16:41:22.065Z,9.62
2023-02-24T16:43:50.900Z,9.62
2023-02-24T16:46:21.303Z,9.62
2023-02-24T16:48:50.932Z,9.63
2023-02-24T16:51:19.397Z,9.65
2023-02-24T16:53:49.261Z,9.67
2023-02-24T16:56:18.188Z,9.68
2023-02-24T16:58:46.964Z,9.69
2023-02-24T17:01:19.136Z,9.69
2023-02-24T17:03:49.444Z,9.71
2023-02-24T17:06:20.832Z,9.72
2023-02-24T17:08:50.844Z,9.73
2023-02-24T17:11:20.424Z,9.72
2023-02-24T17:13:49.959Z,9.72
2023-02-24T17:16:19.245Z,9.72
2023-02-24T17:18:48.600Z,9.72
2023-02-24T17:21:18.164Z,9.73
2023-02-24T17:23:46.525Z,9.73
2023-02-24T17:26:15.021Z,9.74
2023-02-24T17:28:43.426Z,9.74
2023-02-24T17:31:12.735Z,9.75
2023-02-24T17:33:41.658Z,9.76
2023-02-24T17:36:10.202Z,9.77
2023-02-24T17:38:38.350Z,9.76
2023-02-24T17:41:06.536Z,9.76
2023-02-24T17:43:35.291Z,9.76
2023-02-24T17:46:07.366Z,9.77
2023-02-24T17:48:36.674Z,9.78
2023-02-24T17:51:16.050Z,9.80
2023-02-24T17:53:44.811Z,9.80
2023-02-24T17:56:13.074Z,9.81
2023-02-24T17:58:41.667Z,9.82
2023-02-24T18:01:09.860Z,9.82
2023-02-24T18:03:38.628Z,9.83
2023-02-24T18:06:11.289Z,9.84
2023-02-24T18:08:43.237Z,9.83
2023-02-24T18:11:15.608Z,9.82
2023-02-24T18:13:50.981Z,9.81
2023-02-24T18:16:19.927Z,9.81
2023-02-24T18:18:48.557Z,9.82
2023-02-24T18:21:16.777Z,9.83
2023-02-24T18:23:45.896Z,9.85
2023-02-24T18:26:14.015Z,9.87
2023-02-24T18:28:42.847Z,9.89
2023-02-24T18:31:15.855Z,9.91
2023-02-24T18:33:44.499Z,9.92
2023-02-24T18:36:12.832Z,9.93
2023-02-24T18:38:41.080Z,9.94
2023-02-24T18:41:11.855Z,9.93
2023-02-24T18:43:40.390Z,9.94
2023-02-24T18:46:12.246Z,9.94
2023-02-24T18:48:41.378Z,9.94
2023-02-24T18:51:09.946Z,9.95
2023-02-24T18:53:38.928Z,9.96
2023-02-24T18:56:09.868Z,9.98
2023-02-24T18:58:38.736Z,9.98
2023-02-24T19:01:14.169Z,9.98
2023-02-24T19:03:42.837Z,9.98
2023-02-24T19:06:11.647Z,9.98
2023-02-24T19:08:40.539Z,9.98
2023-02-24T19:11:10.299Z,9.99
2023-02-24T19:13:38.508Z,9.99
2023-02-24T19:16:07.472Z,10.01
2023-02-24T19:18:36.544Z,10.03
2023-02-24T19:21:06.537Z,10.04
2023-02-24T19:23:36.645Z,10.06
2023-02-24T19:26:05.398Z,10.07
2023-02-24T19:28:33.648Z,10.07
2023-02-24T19:31:02.123Z,10.05
2023-02-24T19:33:30.412Z,10.04
2023-02-24T19:35:59.771Z,10.04
2023-02-24T19:38:28.587Z,10.05
2023-02-24T19:40:59.660Z,10.06
2023-02-24T19:43:28.385Z,10.07
2023-02-24T19:45:56.644Z,10.07
2023-02-24T19:48:25.214Z,10.07
2023-02-24T19:50:53.539Z,10.09
2023-02-24T19:53:22.079Z,10.10
2023-02-24T19:55:50.717Z,10.12
2023-02-24T19:58:18.888Z,10.13
2023-02-24T20:00:48.365Z,10.13
2023-02-24T20:03:18.623Z,10.14
2023-02-24T20:05:46.927Z,10.16
2023-02-24T20:08:15.739Z,10.15
2023-02-24T20:10:44.186Z,10.14
2023-02-24T20:13:16.686Z,10.15
2023-02-24T20:15:44.901Z,10.16
2023-02-24T20:18:13.179Z,10.17
2023-02-24T20:20:44.743Z,10.18
2023-02-24T20:23:13.596Z,10.19
2023-02-24T20:25:53.313Z,10.20
2023-02-24T20:28:22.154Z,10.21
2023-02-24T20:30:54.968Z,10.22
2023-02-24T20:33:23.261Z,10.23
2023-02-24T20:35:51.672Z,10.25
2023-02-24T20:38:20.376Z,10.25
2023-02-24T20:41:00.257Z,10.26
2023-02-24T20:43:28.766Z,10.27
2023-02-24T20:45:57.029Z,10.29
2023-02-24T20:48:25.370Z,10.30
2023-02-24T20:50:53.612Z,10.30
2023-02-24T20:53:23.282Z,10.31
2023-02-24T20:55:51.732Z,10.31
2023-02-24T20:58:20.417Z,10.30
2023-02-24T21:00:48.623Z,10.31
2023-02-24T21:03:17.877Z,10.31
2023-02-24T21:05:46.552Z,10.31
2023-02-24T21:08:14.932Z,10.31
2023-02-24T21:10:46.241Z,10.30
2023-02-24T21:13:16.319Z,10.30
2023-02-24T21:15:54.109Z,10.28
2023-02-24T21:18:23.170Z,10.28
2023-02-24T21:20:54.615Z,10.30
2023-02-24T21:23:22.990Z,10.30
2023-02-24T21:25:54.206Z,10.31
2023-02-24T21:28:22.646Z,10.32
2023-02-24T21:30:51.106Z,10.33
2023-02-24T21:33:19.515Z,10.34
2023-02-24T21:36:09.769Z,10.35
2023-02-24T21:38:38.616Z,10.35
2023-02-24T21:41:07.889Z,10.35
2023-02-24T21:43:37.939Z,10.36
2023-02-24T21:46:09.283Z,10.38
2023-02-24T21:48:38.883Z,10.39
2023-02-24T21:51:09.607Z,10.41
2023-02-24T21:53:39.611Z,10.42
2023-02-24T21:56:16.477Z,10.43
2023-02-24T21:58:46.643Z,10.44
2023-02-24T22:01:26.890Z,10.46
2023-02-24T22:03:59.548Z,10.46
2023-02-24T22:06:31.782Z,10.46
2023-02-24T22:09:02.127Z,10.47
2023-02-24T22:11:35.350Z,10.48
2023-02-24T22:14:06.300Z,10.47
2023-02-24T22:16:34.850Z,10.47
2023-02-24T22:19:03.082Z,10.46
2023-02-24T22:21:32.421Z,10.46
2023-02-24T22:24:01.995Z,10.46
2023-02-24T22:26:30.608Z,10.45
2023-02-24T22:28:59.107Z,10.46
2023-02-24T22:31:31.520Z,10.46
2023-02-24T22:34:00.111Z,10.46
2023-02-24T22:36:31.023Z,10.48
2023-02-24T22:39:00.342Z,10.49
2023-02-24T22:41:33.102Z,10.50
2023-02-24T22:44:04.386Z,10.50
2023-02-24T22:46:34.848Z,10.49
2023-02-24T22:49:03.200Z,10.49
2023-02-24T22:51:31.547Z,10.49
2023-02-24T22:53:59.685Z,10.51
2023-02-24T22:56:29.172Z,10.50
2023-02-24T22:58:57.853Z,10.50
2023-02-24T23:01:36.168Z,10.48
2023-02-24T23:04:06.246Z,10.48
2023-02-24T23:06:35.024Z,10.47
2023-02-24T23:09:03.916Z,10.48
2023-02-24T23:11:41.336Z,10.50
2023-02-24T23:14:13.913Z,10.51
2023-02-24T23:16:44.620Z,10.52
2023-02-24T23:19:16.819Z,10.53
2023-02-24T23:21:50.365Z,10.55
2023-02-24T23:24:22.082Z,10.56
2023-02-24T23:26:54.142Z,10.56
2023-02-24T23:29:24.349Z,10.55
2023-02-24T23:31:52.833Z,10.56
2023-02-24T23:34:21.180Z,10.55
2023-02-24T23:36:49.468Z,10.55
2023-02-24T23:39:23.191Z,10.54
2023-02-24T23:41:56.854Z,10.55
2023-02-24T23:44:25.633Z,10.57
2023-02-24T23:46:54.202Z,10.58
2023-02-24T23:49:24.177Z,10.60
2023-02-24T23:51:53.104Z,10.62
2023-02-24T23:54:21.433Z,10.63
2023-02-24T23:56:49.839Z,10.62
2023-02-24T23:59:21.657Z,10.60
